Time;durP1;ratioP1;P1;durP2;ratioP2;P2;SDS_P1;SDS_P2;PMS_P1;PMS_P2;Temp;Humidity;BMP_temperature;BMP_pressure;BME280_temperature;BME280_humidity;BME280_pressure;Samples;Min_cycle;Max_cycle;Signal;HPM_P1;HPM_P2
2021/09/12 00:01:51;;;;;;;12.27;3.47;;;;;;;16.84;78.54;101861.38;4843334;29;20071;-63
2021/09/12 00:04:16;;;;;;;12.45;3.30;;;;;;;16.82;78.22;101868.63;4842732;29;20068;-63
2021/09/12 00:06:42;;;;;;;10.73;3.20;;;;;;;16.80;78.22;101864.31;4842351;29;20109;-63
2021/09/12 00:09:07;;;;;;;8.63;3.05;;;;;;;16.74;78.21;101870.88;4842386;29;20026;-64
2021/09/12 00:11:33;;;;;;;12.43;3.28;;;;;;;16.73;77.94;101866.47;4842758;29;20452;-63
2021/09/12 00:13:58;;;;;;;10.98;3.55;;;;;;;16.68;78.62;101864.03;4842718;29;20029;-63
2021/09/12 00:16:23;;;;;;;8.35;3.17;;;;;;;16.64;78.39;101862.47;4836769;29;20064;-64
2021/09/12 00:18:49;;;;;;;13.13;3.42;;;;;;;16.58;78.55;101854.78;4831054;29;20456;-64
2021/09/12 00:21:14;;;;;;;11.98;3.53;;;;;;;16.50;78.62;101851.66;4842563;29;20492;-63
2021/09/12 00:23:40;;;;;;;11.65;3.30;;;;;;;16.46;79.37;101848.28;4842716;29;20475;-64
2021/09/12 00:26:05;;;;;;;12.40;3.30;;;;;;;16.41;79.10;101853.00;4826379;29;20070;-63
2021/09/12 00:28:30;;;;;;;9.52;3.20;;;;;;;16.36;79.27;101849.72;4842373;29;20032;-63
2021/09/12 00:30:56;;;;;;;12.10;4.10;;;;;;;16.32;79.45;101845.50;4842417;29;20061;-61
2021/09/12 00:33:21;;;;;;;12.10;4.00;;;;;;;16.28;79.78;101843.91;4842712;29;20034;-64
2021/09/12 00:35:46;;;;;;;12.20;3.60;;;;;;;16.21;80.45;101841.56;4842419;29;20038;-63
2021/09/12 00:38:13;;;;;;;12.40;3.60;;;;;;;16.17;80.65;101833.78;4842184;29;20113;-68
2021/09/12 00:40:39;;;;;;;10.80;3.80;;;;;;;16.10;80.92;101833.25;4842234;29;20056;-63
2021/09/12 00:43:04;;;;;;;7.07;3.80;;;;;;;16.10;80.91;101835.03;4842307;29;20094;-65
2021/09/12 00:45:30;;;;;;;13.30;4.07;;;;;;;16.03;81.00;101832.69;4842080;29;20030;-63
2021/09/12 00:47:56;;;;;;;9.38;3.80;;;;;;;15.97;81.37;101830.38;4842334;29;20348;-65
2021/09/12 00:50:22;;;;;;;9.15;4.18;;;;;;;15.96;82.02;101836.66;4841783;29;20128;-63
2021/09/12 00:52:48;;;;;;;15.20;4.32;;;;;;;15.93;81.77;101833.25;4842037;29;20116;-63
2021/09/12 00:55:15;;;;;;;13.20;4.70;;;;;;;15.90;81.94;101831.63;4842440;29;20535;-63
2021/09/12 00:57:45;;;;;;;14.73;4.70;;;;;;;15.87;81.92;101832.63;4842071;29;20030;-63
2021/09/12 01:00:12;;;;;;;14.70;4.60;;;;;;;15.84;82.43;101843.50;4842009;29;20033;-62
2021/09/12 01:02:37;;;;;;;9.23;4.32;;;;;;;15.80;82.14;101839.19;4841586;29;20501;-64
2021/09/12 01:05:05;;;;;;;9.35;4.22;;;;;;;15.76;82.75;101842.97;4841590;29;20042;-63
2021/09/12 01:07:30;;;;;;;13.93;4.75;;;;;;;15.71;82.50;101831.66;4841872;29;20049;-63
2021/09/12 01:09:56;;;;;;;14.63;5.15;;;;;;;15.67;82.88;101836.28;4840579;29;20034;-63
2021/09/12 01:12:21;;;;;;;13.77;5.40;;;;;;;15.62;82.98;101832.13;4824324;29;20034;-62
2021/09/12 01:14:46;;;;;;;11.75;4.75;;;;;;;15.58;82.88;101828.75;4840528;29;20022;-64
2021/09/12 01:17:12;;;;;;;14.88;5.00;;;;;;;15.55;83.35;101836.91;4841581;29;20033;-67
2021/09/12 01:19:37;;;;;;;15.50;4.82;;;;;;;15.51;83.23;101833.53;4841169;29;20030;-63
2021/09/12 01:22:05;;;;;;;12.57;5.57;;;;;;;15.51;83.08;101832.66;4841293;29;20079;-64
2021/09/12 01:24:32;;;;;;;11.88;5.03;;;;;;;15.45;83.39;101831.16;4842100;29;20068;-62
2021/09/12 01:26:58;;;;;;;16.67;5.43;;;;;;;15.41;83.34;101829.59;4841801;29;20026;-63
2021/09/12 01:29:23;;;;;;;15.98;5.30;;;;;;;15.38;83.37;101829.72;4841712;29;20041;-62
2021/09/12 01:31:48;;;;;;;14.38;4.68;;;;;;;15.34;83.83;101841.50;4841643;29;20033;-63
2021/09/12 01:34:14;;;;;;;12.07;5.20;;;;;;;15.31;83.58;101833.66;4841657;29;20047;-64
2021/09/12 01:36:40;;;;;;;15.63;5.25;;;;;;;15.28;83.56;101836.47;4840980;29;20060;-63
2021/09/12 01:39:06;;;;;;;13.80;5.97;;;;;;;15.21;83.96;101831.41;4841637;29;20034;-64
2021/09/12 01:41:31;;;;;;;12.27;5.85;;;;;;;15.13;83.70;101830.06;4841638;29;20038;-67
2021/09/12 01:43:59;;;;;;;11.48;5.40;;;;;;;15.06;84.31;101838.38;4841273;29;20037;-64
2021/09/12 01:46:26;;;;;;;11.98;5.40;;;;;;;15.04;84.47;101842.91;4841285;29;20049;-63
2021/09/12 01:48:56;;;;;;;11.93;5.50;;;;;;;15.05;84.45;101833.09;4841670;29;20045;-63
2021/09/12 01:51:22;;;;;;;13.23;5.70;;;;;;;15.06;84.20;101843.72;4841681;29;20041;-63
2021/09/12 01:53:48;;;;;;;14.77;5.45;;;;;;;15.06;84.37;101838.38;4841322;29;20026;-63
2021/09/12 01:56:14;;;;;;;14.27;6.15;;;;;;;15.05;84.52;101843.75;4841052;29;20061;-63
2021/09/12 01:58:40;;;;;;;16.20;5.90;;;;;;;15.07;84.12;101841.91;4841504;29;20038;-63
2021/09/12 02:01:05;;;;;;;13.30;5.88;;;;;;;15.08;83.99;101843.63;4841224;29;20044;-62
2021/09/12 02:03:31;;;;;;;13.77;5.75;;;;;;;15.05;84.18;101843.75;4841613;29;20499;-63
2021/09/12 02:05:57;;;;;;;12.68;5.90;;;;;;;15.03;84.49;101833.16;4841279;29;20445;-61
2021/09/12 02:08:22;;;;;;;15.93;6.20;;;;;;;14.98;84.56;101839.66;4841097;29;20038;-63
2021/09/12 02:10:48;;;;;;;13.35;6.70;;;;;;;14.93;84.84;101834.53;4841351;29;20540;-63
2021/09/12 02:13:14;;;;;;;13.73;6.18;;;;;;;14.94;84.84;101843.44;4841639;29;20041;-63
2021/09/12 02:15:39;;;;;;;12.98;6.72;;;;;;;14.94;84.94;101846.09;4841258;29;20034;-63
2021/09/12 02:18:05;;;;;;;18.25;6.40;;;;;;;14.91;85.17;101845.28;4841118;29;20479;-63
2021/09/12 02:20:30;;;;;;;15.52;6.90;;;;;;;14.89;85.09;101841.81;4840744;29;20038;-62
2021/09/12 02:22:55;;;;;;;14.40;6.47;;;;;;;14.86;85.13;101844.66;4843129;29;20058;-63
2021/09/12 02:25:21;;;;;;;16.00;6.55;;;;;;;14.83;85.31;101850.09;4844415;29;20411;-63
2021/09/12 02:27:46;;;;;;;16.13;7.20;;;;;;;14.80;85.61;101833.41;4844580;29;20045;-64
2021/09/12 02:30:12;;;;;;;17.73;7.05;;;;;;;14.78;85.53;101846.78;4844616;29;20443;-64
2021/09/12 02:32:37;;;;;;;14.25;7.15;;;;;;;14.75;85.60;101845.13;4844602;29;20057;-63
2021/09/12 02:35:03;;;;;;;14.68;7.13;;;;;;;14.78;85.92;101846.78;4844500;29;20037;-63
2021/09/12 02:37:29;;;;;;;13.93;7.13;;;;;;;14.75;85.80;101845.13;4844334;29;20491;-63
2021/09/12 02:39:54;;;;;;;23.80;8.32;;;;;;;14.74;86.16;101845.22;4844054;29;20121;-63
2021/09/12 02:42:19;;;;;;;16.08;7.20;;;;;;;14.71;85.87;101838.22;4844444;29;20169;-63
2021/09/12 02:44:45;;;;;;;15.75;7.07;;;;;;;14.72;85.86;101839.09;4844257;29;20128;-64
2021/09/12 02:47:10;;;;;;;18.63;7.60;;;;;;;14.70;85.89;101840.97;4807921;29;20031;-63
2021/09/12 02:49:36;;;;;;;20.42;7.47;;;;;;;14.66;86.16;101839.38;4824484;29;20398;-64
2021/09/12 02:52:01;;;;;;;17.40;7.85;;;;;;;14.65;86.30;101845.63;4844156;29;20135;-64
2021/09/12 02:54:26;;;;;;;17.98;7.47;;;;;;;14.64;86.60;101841.19;4844247;29;20086;-63
2021/09/12 02:56:52;;;;;;;18.42;7.72;;;;;;;14.61;86.54;101842.22;4843753;29;20038;-63
2021/09/12 02:59:17;;;;;;;20.20;8.82;;;;;;;14.59;86.52;101830.75;4843434;29;20057;-63
2021/09/12 03:01:42;;;;;;;20.40;8.30;;;;;;;14.59;86.70;101828.97;4844107;29;20539;-63
2021/09/12 03:04:08;;;;;;;16.85;7.93;;;;;;;14.61;86.86;101836.03;4843792;29;20068;-63
2021/09/12 03:06:33;;;;;;;18.85;8.65;;;;;;;14.68;86.80;101837.50;4843855;29;20045;-64
2021/09/12 03:08:58;;;;;;;21.15;8.57;;;;;;;14.77;87.06;101845.09;4843870;29;20026;-63
2021/09/12 03:11:24;;;;;;;18.65;7.63;;;;;;;14.85;86.28;101840.25;4843360;29;20086;-62
2021/09/12 03:13:49;;;;;;;20.88;8.07;;;;;;;14.92;86.29;101843.47;4844111;29;20104;-62
2021/09/12 03:16:15;;;;;;;20.30;8.02;;;;;;;15.02;85.61;101844.78;4843808;29;20093;-62
2021/09/12 03:18:40;;;;;;;21.98;8.55;;;;;;;15.09;85.35;101842.69;4843188;29;20034;-63
2021/09/12 03:21:05;;;;;;;21.48;8.15;;;;;;;15.16;84.88;101841.44;4843717;29;20053;-64
2021/09/12 03:23:31;;;;;;;18.55;7.70;;;;;;;15.20;85.24;101834.16;4843425;29;20055;-66
2021/09/12 03:25:56;;;;;;;15.43;7.95;;;;;;;15.23;85.15;101836.69;4843805;29;20045;-64
2021/09/12 03:28:21;;;;;;;22.10;8.48;;;;;;;15.30;85.16;101834.59;4843696;29;20037;-63
2021/09/12 03:30:47;;;;;;;18.30;8.88;;;;;;;15.31;84.82;101839.00;4835274;29;20380;-63
2021/09/12 03:33:14;;;;;;;17.70;8.25;;;;;;;15.32;85.61;101832.69;4825348;29;20460;-62
2021/09/12 03:35:40;;;;;;;18.48;9.00;;;;;;;15.40;85.19;101831.38;4824835;29;20101;-67
2021/09/12 03:38:06;;;;;;;19.15;8.82;;;;;;;15.44;84.65;101828.56;4827421;29;20117;-63
2021/09/12 03:40:31;;;;;;;18.15;8.88;;;;;;;15.44;85.04;101839.25;4842974;29;20494;-63
2021/09/12 03:42:57;;;;;;;21.67;9.40;;;;;;;15.48;85.13;101836.34;4842950;29;20042;-63
2021/09/12 03:45:22;;;;;;;21.17;9.18;;;;;;;15.52;85.04;101842.41;4843518;29;20029;-62
2021/09/12 03:47:47;;;;;;;22.75;9.65;;;;;;;15.51;85.18;101838.00;4843377;29;20034;-63
2021/09/12 03:50:13;;;;;;;17.20;9.07;;;;;;;15.55;84.85;101839.59;4842425;29;20034;-62
2021/09/12 03:52:38;;;;;;;22.08;9.63;;;;;;;15.57;84.81;101838.56;4842690;29;20034;-63
2021/09/12 03:55:04;;;;;;;19.88;9.05;;;;;;;15.62;85.11;101846.31;4842814;29;20102;-62
2021/09/12 03:57:29;;;;;;;24.00;10.52;;;;;;;15.66;84.74;101842.56;4843199;29;20037;-64
2021/09/12 03:59:55;;;;;;;19.95;9.55;;;;;;;15.69;84.84;101841.53;4843107;29;20110;-63
2021/09/12 04:02:20;;;;;;;19.52;9.57;;;;;;;15.72;84.91;101847.59;4842361;29;20360;-63
2021/09/12 04:04:45;;;;;;;23.13;9.68;;;;;;;15.74;84.60;101844.84;4842645;29;20053;-63
2021/09/12 04:07:11;;;;;;;24.23;10.48;;;;;;;15.76;84.85;101847.47;4843108;29;20034;-63
2021/09/12 04:09:36;;;;;;;26.50;10.27;;;;;;;15.77;84.42;101846.50;4842861;29;20410;-64
2021/09/12 04:12:02;;;;;;;23.98;10.32;;;;;;;15.72;84.57;101844.91;4842340;29;20029;-63
2021/09/12 04:14:27;;;;;;;19.98;9.95;;;;;;;15.67;84.84;101838.09;4843029;29;20038;-64
2021/09/12 04:16:52;;;;;;;24.27;10.27;;;;;;;15.61;85.36;101844.59;4843109;29;20030;-63
2021/09/12 04:19:18;;;;;;;24.35;10.70;;;;;;;15.57;85.61;101837.69;4842744;29;20030;-63
2021/09/12 04:21:44;;;;;;;25.42;10.85;;;;;;;15.54;85.82;101833.38;4842411;29;20402;-64
2021/09/12 04:24:09;;;;;;;28.67;11.45;;;;;;;15.50;86.14;101836.25;4842570;29;20041;-63
2021/09/12 04:26:35;;;;;;;24.05;10.98;;;;;;;15.46;86.34;101830.22;4841952;29;20372;-63
2021/09/12 04:29:00;;;;;;;27.65;11.40;;;;;;;15.42;86.29;101833.97;4842629;29;20026;-63
2021/09/12 04:31:27;;;;;;;28.95;12.25;;;;;;;15.34;86.35;101830.81;4842477;29;20067;-63
2021/09/12 04:33:52;;;;;;;26.80;11.65;;;;;;;15.26;87.10;101828.53;4842450;29;20057;-66
2021/09/12 04:36:17;;;;;;;24.48;11.23;;;;;;;15.19;87.59;101827.97;4842641;29;20068;-63
2021/09/12 04:38:43;;;;;;;31.55;12.82;;;;;;;15.14;87.92;101832.66;4842446;29;20034;-62
2021/09/12 04:41:08;;;;;;;29.42;12.18;;;;;;;15.08;88.30;101830.28;4842377;29;20041;-63
2021/09/12 04:43:33;;;;;;;32.25;13.32;;;;;;;15.04;88.42;101829.56;4842116;29;21375;-63
2021/09/12 04:45:59;;;;;;;29.90;12.35;;;;;;;15.02;88.41;101830.59;4841736;29;20070;-65
2021/09/12 04:48:24;;;;;;;30.63;13.20;;;;;;;14.97;88.73;101828.13;4842381;29;20135;-63
2021/09/12 04:50:50;;;;;;;37.72;13.55;;;;;;;14.91;89.13;101826.63;4842257;29;20040;-62
2021/09/12 04:53:15;;;;;;;34.90;13.38;;;;;;;14.93;89.43;101833.69;4841804;29;20527;-63
2021/09/12 04:55:40;;;;;;;31.33;13.63;;;;;;;14.95;89.32;101835.34;4841778;29;20086;-66
2021/09/12 04:58:06;;;;;;;37.42;13.95;;;;;;;14.89;89.61;101830.31;4842211;29;20022;-67
2021/09/12 05:00:31;;;;;;;31.90;14.38;;;;;;;14.87;89.25;101842.81;4842460;29;20125;-67
2021/09/12 05:02:56;;;;;;;32.08;12.90;;;;;;;14.84;89.84;101835.84;4842087;29;20040;-63
2021/09/12 05:05:22;;;;;;;38.28;13.68;;;;;;;14.80;89.96;101834.25;4841212;29;20506;-63
2021/09/12 05:07:47;;;;;;;36.25;14.60;;;;;;;14.82;90.24;101843.06;4841953;29;20059;-63
2021/09/12 05:10:13;;;;;;;28.02;13.68;;;;;;;14.82;90.29;101834.19;4841975;29;20116;-63
2021/09/12 05:12:38;;;;;;;30.02;13.73;;;;;;;14.87;90.18;101837.50;4841892;29;20089;-66
2021/09/12 05:15:04;;;;;;;36.72;14.90;;;;;;;14.89;90.58;101839.16;4841257;29;20018;-63
2021/09/12 05:17:29;;;;;;;33.35;14.13;;;;;;;14.91;90.47;101847.06;4836366;29;20044;-67
2021/09/12 05:19:54;;;;;;;30.08;14.20;;;;;;;14.96;90.32;101836.19;4829502;29;20030;-62
2021/09/12 05:22:20;;;;;;;33.35;14.32;;;;;;;14.99;90.42;101836.94;4820358;29;20129;-61
2021/09/12 05:24:45;;;;;;;33.28;13.75;;;;;;;15.02;89.73;101850.09;4820783;29;20479;-60
2021/09/12 05:27:10;;;;;;;28.45;12.43;;;;;;;15.03;89.53;101849.19;4830711;29;20034;-62
2021/09/12 05:29:36;;;;;;;24.75;13.63;;;;;;;15.01;89.57;101842.19;4840860;29;20455;-64
2021/09/12 05:32:01;;;;;;;28.98;12.85;;;;;;;14.99;89.49;101841.41;4826598;29;20494;-63
2021/09/12 05:34:26;;;;;;;25.85;13.20;;;;;;;14.96;89.51;101836.19;4823608;29;20534;-63
2021/09/12 05:36:52;;;;;;;31.13;13.23;;;;;;;14.91;90.10;101839.06;4841744;29;20436;-64
2021/09/12 05:39:17;;;;;;;30.13;13.40;;;;;;;14.89;89.64;101843.63;4841352;29;20026;-61
2021/09/12 05:41:42;;;;;;;33.33;13.18;;;;;;;14.85;89.97;101840.25;4841771;29;20056;-64
2021/09/12 05:44:08;;;;;;;32.10;13.15;;;;;;;14.84;90.00;101837.66;4826521;29;20117;-62
2021/09/12 05:46:35;;;;;;;29.63;12.38;;;;;;;14.89;89.64;101843.63;4827655;29;20045;-63
2021/09/12 05:49:01;;;;;;;24.38;11.82;;;;;;;14.89;89.56;101848.97;4841789;29;20065;-62
2021/09/12 05:51:26;;;;;;;29.20;11.43;;;;;;;14.93;89.61;101845.22;4841804;29;20062;-64
2021/09/12 05:53:51;;;;;;;25.65;11.07;;;;;;;14.97;89.63;101844.13;4841603;29;20030;-62
2021/09/12 05:56:16;;;;;;;28.55;12.23;;;;;;;15.07;89.30;101844.56;4841950;29;20034;-61
2021/09/12 05:58:42;;;;;;;25.17;11.60;;;;;;;15.17;88.89;101845.00;4844602;29;20113;-62
2021/09/12 06:01:07;;;;;;;25.77;11.48;;;;;;;15.27;88.11;101854.28;4836313;29;20034;-63
2021/09/12 06:03:32;;;;;;;33.58;11.35;;;;;;;15.36;87.62;101852.97;4825305;29;20460;-66
2021/09/12 06:05:58;;;;;;;23.50;10.60;;;;;;;15.49;87.48;101854.09;4826710;29;20030;-62
2021/09/12 06:08:23;;;;;;;26.10;11.10;;;;;;;15.58;86.97;101858.09;4830260;29;20026;-64
2021/09/12 06:10:48;;;;;;;27.67;10.10;;;;;;;15.67;86.53;101857.63;4841412;29;20042;-64
2021/09/12 06:13:14;;;;;;;20.92;9.82;;;;;;;15.76;86.44;101867.00;4843852;29;20026;-65
2021/09/12 06:15:39;;;;;;;21.92;10.15;;;;;;;15.80;85.97;101855.22;4808833;29;20442;-64
2021/09/12 06:18:04;;;;;;;20.83;10.68;;;;;;;15.83;85.67;101860.44;4819542;29;20443;-63
2021/09/12 06:20:30;;;;;;;22.55;9.90;;;;;;;15.85;85.31;101863.03;4826539;29;20450;-61
2021/09/12 06:22:55;;;;;;;22.73;10.98;;;;;;;15.86;85.62;101860.28;4826845;29;20420;-62
2021/09/12 06:25:21;;;;;;;21.83;10.38;;;;;;;15.85;84.87;101861.22;4835552;29;20038;-62
2021/09/12 06:27:47;;;;;;;23.60;10.77;;;;;;;15.88;85.11;101857.53;4844578;29;20030;-61
2021/09/12 06:30:13;;;;;;;24.70;10.32;;;;;;;15.99;84.72;101860.50;4828383;29;20025;-63
2021/09/12 06:32:39;;;;;;;19.45;10.65;;;;;;;16.02;84.97;101855.03;4837537;29;20467;-62
2021/09/12 06:35:05;;;;;;;25.33;10.75;;;;;;;16.09;84.16;101860.91;4826423;29;20034;-63
2021/09/12 06:37:32;;;;;;;26.45;11.50;;;;;;;16.11;84.32;101861.69;4826183;29;20030;-61
2021/09/12 06:39:58;;;;;;;21.67;11.70;;;;;;;16.12;84.51;101857.22;4829893;29;20049;-62
2021/09/12 06:42:23;;;;;;;24.17;10.90;;;;;;;16.19;84.46;101861.31;4830200;29;20391;-62
2021/09/12 06:44:48;;;;;;;23.13;11.38;;;;;;;16.28;84.60;101874.19;4844571;29;20052;-61
2021/09/12 06:47:14;;;;;;;26.27;12.18;;;;;;;16.37;84.27;101868.34;4826457;29;20030;-62
2021/09/12 06:49:39;;;;;;;23.40;13.00;;;;;;;16.45;83.61;101870.59;4834880;29;20484;-61
2021/09/12 06:52:04;;;;;;;24.52;12.07;;;;;;;16.57;83.55;101869.09;4834494;29;20055;-61
2021/09/12 06:54:30;;;;;;;27.40;13.93;;;;;;;16.62;83.40;101866.16;4827072;29;20034;-61
2021/09/12 06:56:55;;;;;;;29.73;13.25;;;;;;;16.66;83.36;101875.75;4844531;29;20034;-64
2021/09/12 06:59:21;;;;;;;33.50;14.40;;;;;;;16.80;82.99;101875.88;4844065;29;20040;-60
2021/09/12 07:01:46;;;;;;;29.25;14.13;;;;;;;16.86;83.14;101872.84;4839328;29;20504;-61
2021/09/12 07:04:11;;;;;;;28.95;13.95;;;;;;;16.98;82.59;101876.72;4828554;29;20050;-62
2021/09/12 07:06:37;;;;;;;33.78;14.43;;;;;;;17.09;82.66;101869.91;4829399;29;20400;-62
2021/09/12 07:09:03;;;;;;;32.28;15.43;;;;;;;17.19;82.20;101879.13;4833793;29;20170;-63
2021/09/12 07:11:28;;;;;;;30.10;13.73;;;;;;;17.28;82.37;101880.44;4814736;29;20035;-61
2021/09/12 07:13:53;;;;;;;33.88;15.30;;;;;;;17.40;81.28;101889.56;4830350;29;20099;-63
2021/09/12 07:16:19;;;;;;;31.45;16.08;;;;;;;17.37;81.26;101874.53;4832824;29;20034;-62
2021/09/12 07:18:44;;;;;;;30.05;14.70;;;;;;;17.41;81.50;101877.91;4825789;29;20034;-63
2021/09/12 07:21:09;;;;;;;34.28;16.23;;;;;;;17.43;81.35;101874.19;4829344;29;20053;-62
2021/09/12 07:23:35;;;;;;;35.50;17.05;;;;;;;17.40;81.69;101884.22;4837544;29;20030;-63
2021/09/12 07:26:00;;;;;;;36.42;17.23;;;;;;;17.35;81.59;101880.00;4843448;29;20022;-63
2021/09/12 07:28:26;;;;;;;36.55;17.92;;;;;;;17.32;82.40;101879.31;4830818;29;20388;-66
2021/09/12 07:30:51;;;;;;;37.15;18.30;;;;;;;17.40;82.19;101879.72;4823063;29;20023;-63
2021/09/12 07:33:17;;;;;;;36.95;17.75;;;;;;;17.57;81.81;101886.78;4830005;29;20509;-60
2021/09/12 07:35:42;;;;;;;38.95;18.58;;;;;;;17.71;81.11;101885.13;4826928;29;20038;-65
2021/09/12 07:38:07;;;;;;;35.20;17.95;;;;;;;17.83;80.64;101887.09;4841792;29;20116;-63
2021/09/12 07:40:33;;;;;;;36.45;18.15;;;;;;;17.93;80.22;101888.31;4834183;29;20073;-67
2021/09/12 07:42:58;;;;;;;43.65;18.23;;;;;;;17.93;79.80;101888.31;4836174;29;20109;-61
2021/09/12 07:45:23;;;;;;;34.70;18.30;;;;;;;17.90;80.02;101895.63;4835424;29;20420;-64
2021/09/12 07:47:49;;;;;;;38.85;18.00;;;;;;;17.88;80.14;101901.06;4830642;29;20507;-66
2021/09/12 07:50:14;;;;;;;41.13;18.45;;;;;;;17.80;80.29;101911.34;4827920;29;20213;-64
2021/09/12 07:52:43;;;;;;;39.08;18.30;;;;;;;17.69;81.24;101904.81;4828544;29;20026;-64
2021/09/12 07:55:13;;;;;;;34.67;18.10;;;;;;;17.78;80.78;101908.78;4826326;29;20379;-61
2021/09/12 07:57:39;;;;;;;42.15;19.67;;;;;;;17.93;80.56;101904.38;4821355;29;20039;-62
2021/09/12 08:00:05;;;;;;;39.90;19.38;;;;;;;18.07;80.10;101913.41;4823274;29;20041;-62
2021/09/12 08:02:31;;;;;;;36.00;19.42;;;;;;;18.15;79.37;101911.16;4822486;29;20027;-64
2021/09/12 08:04:56;;;;;;;37.10;17.95;;;;;;;18.31;79.06;101919.09;4810409;29;20054;-68
2021/09/12 08:07:21;;;;;;;36.10;18.25;;;;;;;18.23;79.40;101913.38;4804727;29;20037;-61
2021/09/12 08:09:46;;;;;;;46.70;19.83;;;;;;;18.33;79.28;101920.75;4822328;29;20117;-62
2021/09/12 08:12:12;;;;;;;40.33;18.95;;;;;;;18.43;78.60;101918.38;4828973;29;20439;-62
2021/09/12 08:14:37;;;;;;;40.72;19.52;;;;;;;18.33;78.48;101930.63;4841443;29;20478;-63
2021/09/12 08:17:02;;;;;;;40.03;19.35;;;;;;;18.44;79.45;101921.91;4824032;29;20091;-65
2021/09/12 08:19:28;;;;;;;35.88;19.33;;;;;;;18.71;77.59;101918.47;4834707;29;20038;-65
2021/09/12 08:21:53;;;;;;;37.95;19.00;;;;;;;18.86;77.72;101922.03;4829173;29;20071;-63
2021/09/12 08:24:18;;;;;;;31.15;17.60;;;;;;;19.13;76.61;101927.50;4839058;29;20029;-64
2021/09/12 08:26:44;;;;;;;32.45;17.30;;;;;;;19.53;75.48;101929.44;4840961;29;20034;-66
2021/09/12 08:29:09;;;;;;;35.15;18.42;;;;;;;19.64;73.87;101925.09;4840015;29;20025;-64
2021/09/12 08:31:35;;;;;;;32.80;18.48;;;;;;;19.32;75.19;101930.75;4834840;29;20398;-64
2021/09/12 08:34:00;;;;;;;37.60;18.33;;;;;;;19.35;75.25;101929.69;4840150;29;20038;-64
2021/09/12 08:36:25;;;;;;;36.97;18.02;;;;;;;19.51;74.67;101928.69;4837104;29;20025;-62
2021/09/12 08:38:50;;;;;;;30.80;17.67;;;;;;;19.98;72.74;101930.06;4839188;29;20047;-67
2021/09/12 08:41:17;;;;;;;31.42;18.02;;;;;;;20.31;72.06;101931.44;4831398;29;20031;-65
2021/09/12 08:43:45;;;;;;;30.83;17.10;;;;;;;20.75;70.24;101930.16;4821960;29;20448;-64
2021/09/12 08:46:11;;;;;;;30.48;17.13;;;;;;;20.90;69.39;101930.06;4830398;29;20462;-63
2021/09/12 08:48:37;;;;;;;29.05;15.95;;;;;;;20.84;69.08;101925.09;4840249;29;20057;-64
2021/09/12 08:51:02;;;;;;;29.35;16.02;;;;;;;20.81;68.81;101925.31;4833773;29;20035;-62
2021/09/12 08:53:28;;;;;;;31.95;17.67;;;;;;;20.67;69.78;101934.34;4840395;29;20041;-64
2021/09/12 08:55:54;;;;;;;30.70;16.00;;;;;;;20.70;69.91;101932.31;4841227;29;20057;-62
2021/09/12 08:58:19;;;;;;;31.55;16.80;;;;;;;20.57;70.53;101939.50;4827511;29;20105;-65
2021/09/12 09:00:45;;;;;;;29.35;16.08;;;;;;;20.61;70.26;101935.63;4829326;29;20094;-63
2021/09/12 09:03:11;;;;;;;28.45;16.92;;;;;;;20.52;70.92;101950.59;4836597;29;20438;-63
2021/09/12 09:05:40;;;;;;;27.30;16.35;;;;;;;20.56;70.31;101945.84;4840998;29;20097;-63
2021/09/12 09:08:15;;;;;;;33.90;16.98;;;;;;;20.46;70.81;101954.56;4838820;29;20033;-63
2021/09/12 09:10:49;;;;;;;30.52;17.20;;;;;;;20.30;71.72;101949.38;4840840;29;20083;-62
2021/09/12 09:13:35;;;;;;;24.73;15.60;;;;;;;20.05;72.33;101954.69;4840595;29;20117;-61
2021/09/12 09:16:04;;;;;;;31.48;17.05;;;;;;;19.92;72.57;101949.28;4823512;29;20026;-63
2021/09/12 09:18:35;;;;;;;28.65;17.10;;;;;;;19.96;72.65;101954.38;4841163;29;20034;-64
2021/09/12 09:21:01;;;;;;;;;;;;;;;20.20;71.47;101953.66;4841396;29;20144;-64
2021/09/12 09:23:27;;;;;;;29.77;15.52;;;;;;;20.78;70.13;101945.22;4840100;29;19940;-67
2021/09/12 09:25:52;;;;;;;23.17;14.57;;;;;;;21.75;66.15;101948.16;4840938;29;20029;-63
2021/09/12 09:28:19;;;;;;;24.23;14.25;;;;;;;22.24;64.14;101938.19;4839049;29;20044;-61
2021/09/12 09:30:47;;;;;;;34.97;15.15;;;;;;;22.19;65.55;101951.16;4840346;29;20120;-63
2021/09/12 09:33:20;;;;;;;24.05;14.00;;;;;;;23.23;61.24;101947.50;4840120;29;20041;-65
2021/09/12 09:35:54;;;;;;;21.10;11.05;;;;;;;25.00;56.29;101936.22;4823377;29;20030;-62
2021/09/12 09:38:21;;;;;;;18.80;10.32;;;;;;;26.62;50.53;101939.44;4822578;29;20042;-66
2021/09/12 09:41:02;;;;;;;16.50;10.13;;;;;;;26.83;50.06;101935.69;4821815;29;20031;-62
2021/09/12 09:43:54;;;;;;;16.95;9.88;;;;;;;26.42;49.00;101932.34;4838927;29;20064;-65
2021/09/12 09:46:27;;;;;;;19.38;10.70;;;;;;;24.71;54.28;101938.81;4818596;29;20049;-64
2021/09/12 09:48:52;;;;;;;16.50;10.73;;;;;;;23.73;57.33;101935.34;4822107;29;20049;-64
2021/09/12 09:51:18;;;;;;;16.98;10.80;;;;;;;22.99;59.52;101936.84;4834560;29;20033;-61
2021/09/12 09:53:44;;;;;;;16.90;9.77;;;;;;;22.42;62.57;101944.03;4832464;29;20378;-63
2021/09/12 09:56:10;;;;;;;15.77;9.90;;;;;;;21.75;64.39;101942.75;4833368;29;20034;-63
2021/09/12 09:58:36;;;;;;;19.45;9.10;;;;;;;21.33;66.68;101942.25;4814475;29;20053;-61
2021/09/12 10:01:02;;;;;;;16.23;7.80;;;;;;;21.24;66.20;101947.34;4836461;29;20225;-64
2021/09/12 10:03:29;;;;;;;9.63;5.82;;;;;;;21.25;65.85;101940.97;4827860;29;20051;-63
2021/09/12 10:05:55;;;;;;;10.45;6.13;;;;;;;21.17;66.51;101948.75;4807611;29;20023;-62
2021/09/12 10:08:20;;;;;;;8.65;4.93;;;;;;;21.21;65.61;101947.53;4803979;29;20145;-63
2021/09/12 10:10:46;;;;;;;7.53;4.18;;;;;;;21.37;65.69;101952.69;4803879;29;20386;-61
2021/09/12 10:13:13;;;;;;;5.78;4.05;;;;;;;21.62;64.57;101948.19;4803615;29;20442;-63
2021/09/12 10:15:40;;;;;;;8.43;3.40;;;;;;;21.87;63.57;101949.94;4803127;29;20039;-63
2021/09/12 10:18:07;;;;;;;5.65;3.30;;;;;;;22.06;62.59;101957.50;4804775;29;20043;-66
2021/09/12 10:20:34;;;;;;;6.13;3.17;;;;;;;22.41;62.10;101958.47;4804361;29;20034;-63
2021/09/12 10:23:03;;;;;;;3.70;2.63;;;;;;;23.10;61.44;101954.84;4803220;29;20058;-62
2021/09/12 10:25:29;;;;;;;6.43;2.97;;;;;;;23.14;60.58;101953.63;4803631;29;20038;-66
2021/09/12 10:27:59;;;;;;;7.30;2.80;;;;;;;23.17;58.84;101963.34;4803605;29;20369;-67
2021/09/12 10:30:42;;;;;;;4.13;2.35;;;;;;;22.78;59.35;101961.00;4802978;29;20035;-62
2021/09/12 10:33:07;;;;;;;5.90;2.47;;;;;;;22.56;60.09;101959.97;4803448;29;20054;-63
2021/09/12 10:35:36;;;;;;;2.95;2.30;;;;;;;22.57;58.34;101964.41;4804996;29;20027;-64
2021/09/12 10:38:04;;;;;;;3.53;2.15;;;;;;;22.36;58.79;101960.66;4809628;29;20038;-62
2021/09/12 10:40:53;;;;;;;4.60;2.10;;;;;;;22.56;59.02;101959.97;4821446;29;20091;-62
2021/09/12 10:43:29;;;;;;;4.10;2.00;;;;;;;23.05;57.66;101957.06;4785967;29;20100;-63
2021/09/12 10:46:01;;;;;;;3.25;1.80;;;;;;;23.48;54.92;101969.84;4804800;29;20083;-62
2021/09/12 10:48:26;;;;;;;4.35;2.05;;;;;;;22.99;55.99;101957.56;4823048;29;20122;-63
2021/09/12 10:50:53;;;;;;;2.65;1.80;;;;;;;23.29;55.18;101951.56;4825214;29;20038;-63
2021/09/12 10:53:38;;;;;;;2.10;1.50;;;;;;;23.83;54.42;101954.38;4823762;29;20030;-62
2021/09/12 10:56:04;;;;;;;2.13;1.40;;;;;;;24.56;51.56;101950.94;4824639;29;20110;-61
2021/09/12 10:58:32;;;;;;;3.72;1.60;;;;;;;25.27;49.61;101955.53;4808491;29;20385;-63
2021/09/12 11:00:59;;;;;;;4.78;1.60;;;;;;;26.26;46.95;101957.41;4823609;29;20157;-64
2021/09/12 11:03:26;;;;;;;4.68;1.60;;;;;;;26.66;49.11;101961.72;4815588;29;20033;-63
2021/09/12 11:05:52;;;;;;;2.67;1.58;;;;;;;26.57;44.99;101949.88;4841230;29;20064;-63
2021/09/12 11:08:17;;;;;;;1.98;1.60;;;;;;;26.37;45.70;101956.38;4835138;29;20031;-62
2021/09/12 11:10:51;;;;;;;4.60;1.63;;;;;;;26.63;44.68;101953.91;4822226;29;20113;-63